Time;durP1;ratioP1;P1;durP2;ratioP2;P2;SDS_P1;SDS_P2;PMS_P1;PMS_P2;Temp;Humidity;BMP_temperature;BMP_pressure;BME280_temperature;BME280_humidity;BME280_pressure;Samples;Min_cycle;Max_cycle;Signal;HPM_P1;HPM_P2
2021/01/03 00:01:16;;;;;;;0.30;0.30;;;0.00;99.90;;;;;;5087453;28;20395;-87
2021/01/03 00:03:43;;;;;;;0.30;0.30;;;0.00;99.90;;;;;;5094036;28;20034;-87
2021/01/03 00:06:13;;;;;;;0.10;0.10;;;0.10;99.90;;;;;;5093675;28;20028;-87
2021/01/03 00:08:40;;;;;;;0.30;0.30;;;0.10;99.90;;;;;;5091155;28;20089;-88
2021/01/03 00:11:06;;;;;;;0.10;0.10;;;0.10;99.90;;;;;;5090821;28;20036;-88
2021/01/03 00:13:31;;;;;;;0.28;0.28;;;0.10;99.90;;;;;;5076018;28;20047;-88
2021/01/03 00:15:57;;;;;;;0.10;0.10;;;0.10;99.90;;;;;;5086058;28;20035;-88
2021/01/03 00:18:23;;;;;;;0.10;0.10;;;0.10;99.90;;;;;;5089898;28;20020;-88
2021/01/03 00:20:50;;;;;;;0.10;0.10;;;0.10;99.90;;;;;;5090447;28;20017;-88
2021/01/03 00:23:15;;;;;;;0.40;0.40;;;0.00;99.90;;;;;;5087736;28;20076;-88
2021/01/03 00:25:41;;;;;;;0.10;0.10;;;0.00;99.90;;;;;;5075089;28;20032;-88
2021/01/03 00:28:07;;;;;;;0.10;0.10;;;0.10;99.90;;;;;;5081147;28;20055;-88
2021/01/03 00:30:32;;;;;;;2.05;0.65;;;0.10;99.90;;;;;;5093529;28;20032;-88
2021/01/03 00:32:59;;;;;;;0.10;0.10;;;0.20;99.90;;;;;;5081083;28;20055;-88
2021/01/03 00:35:31;;;;;;;0.13;0.13;;;0.10;99.90;;;;;;5092647;28;20080;-89
2021/01/03 00:38:03;;;;;;;0.15;0.15;;;0.10;99.90;;;;;;5093241;28;20483;-89
2021/01/03 00:40:30;;;;;;;0.10;0.10;;;0.10;99.90;;;;;;5093124;28;20483;-88
2021/01/03 00:42:57;;;;;;;2.55;0.90;;;0.10;99.90;;;;;;5078525;28;20024;-88
2021/01/03 00:45:23;;;;;;;0.20;0.20;;;0.10;99.90;;;;;;5075953;28;20028;-88
2021/01/03 00:47:50;;;;;;;0.38;0.38;;;0.10;99.90;;;;;;5077039;28;20491;-88
2021/01/03 00:50:17;;;;;;;0.10;0.10;;;0.10;99.90;;;;;;5078252;28;20404;-88
2021/01/03 00:52:43;;;;;;;;;;;0.10;99.90;;;;;;5092525;28;20035;-88
2021/01/03 00:55:10;;;;;;;0.10;0.10;;;0.00;99.90;;;;;;5082887;28;19934;-88
2021/01/03 00:57:36;;;;;;;1.52;1.42;;;0.00;99.90;;;;;;5089806;28;20062;-89
2021/01/03 01:00:13;;;;;;;0.20;0.20;;;0.00;99.90;;;;;;5090874;28;20028;-89
2021/01/03 01:02:39;;;;;;;0.20;0.20;;;-0.10;99.90;;;;;;5090346;28;20028;-88
2021/01/03 01:05:05;;;;;;;3.10;0.55;;;-0.20;99.90;;;;;;5086447;28;20035;-89
2021/01/03 01:07:31;;;;;;;0.10;0.10;;;-0.40;99.90;;;;;;5088636;28;20059;-89
2021/01/03 01:09:57;;;;;;;0.35;0.35;;;-0.70;99.90;;;;;;5089624;28;20101;-89
2021/01/03 01:12:23;;;;;;;0.17;0.17;;;-0.90;99.90;;;;;;5082986;28;20127;-88
2021/01/03 01:14:48;;;;;;;0.43;0.43;;;-0.90;99.90;;;;;;5075419;28;20039;-89
2021/01/03 01:17:14;;;;;;;0.20;0.20;;;-1.00;99.90;;;;;;5072425;28;20059;-89
2021/01/03 01:19:40;;;;;;;0.25;0.25;;;-1.10;99.90;;;;;;5086328;28;20024;-89
2021/01/03 01:22:06;;;;;;;0.20;0.20;;;-0.90;99.90;;;;;;5088341;28;20081;-89
2021/01/03 01:24:31;;;;;;;0.10;0.10;;;-1.00;99.90;;;;;;5089764;28;20024;-89
2021/01/03 01:26:57;;;;;;;1.45;0.52;;;-0.80;99.90;;;;;;5087103;28;20024;-89
2021/01/03 01:29:23;;;;;;;0.10;0.10;;;-0.60;99.90;;;;;;5077412;28;20035;-90
2021/01/03 01:31:49;;;;;;;0.20;0.20;;;-0.40;99.90;;;;;;5073309;28;20116;-90
2021/01/03 01:34:15;;;;;;;0.20;0.20;;;-0.30;99.90;;;;;;5068045;28;20123;-88
2021/01/03 01:36:41;;;;;;;0.40;0.40;;;-0.20;99.90;;;;;;5088054;28;20080;-89
2021/01/03 01:39:06;;;;;;;0.17;0.17;;;-0.20;99.90;;;;;;5090154;28;20028;-89
2021/01/03 01:41:32;;;;;;;0.25;0.25;;;-0.20;99.90;;;;;;5084373;28;20025;-89
2021/01/03 01:43:58;;;;;;;0.20;0.20;;;-0.20;99.90;;;;;;5085745;28;20048;-90
2021/01/03 01:46:33;;;;;;;0.10;0.10;;;-0.20;99.90;;;;;;5088599;28;20082;-90
2021/01/03 01:49:02;;;;;;;0.70;0.70;;;-0.20;99.90;;;;;;5078576;28;20055;-89
2021/01/03 01:51:36;;;;;;;0.75;0.70;;;-0.30;99.90;;;;;;5078668;28;20040;-90
2021/01/03 01:54:08;;;;;;;0.30;0.30;;;-0.20;99.90;;;;;;5090159;28;20515;-90
2021/01/03 01:56:57;;;;;;;0.80;0.80;;;-0.20;99.90;;;;;;5088504;28;20085;-90
2021/01/03 01:59:25;;;;;;;0.20;0.20;;;-0.20;99.90;;;;;;5088896;28;20032;-89
2021/01/03 02:02:09;;;;;;;0.10;0.10;;;-0.30;99.90;;;;;;5082531;28;20028;-88
2021/01/03 02:04:47;;;;;;;0.10;0.10;;;-0.30;99.90;;;;;;5071107;28;20492;-88
2021/01/03 02:07:26;;;;;;;0.20;0.20;;;-0.30;99.90;;;;;;5081316;28;20023;-88
2021/01/03 02:10:16;;;;;;;0.28;0.28;;;-0.30;99.90;;;;;;5088996;28;20503;-88
2021/01/03 02:12:47;;;;;;;0.20;0.20;;;-0.40;99.90;;;;;;5083126;28;20820;-88
2021/01/03 02:15:25;;;;;;;0.10;0.10;;;-0.50;99.90;;;;;;5071180;28;20455;-88
2021/01/03 02:17:51;;;;;;;6.22;1.08;;;-0.50;99.90;;;;;;5095677;28;20682;-87
2021/01/03 02:20:17;;;;;;;0.25;0.25;;;-0.50;99.90;;;;;;5086882;28;20024;-89
2021/01/03 02:22:59;;;;;;;0.20;0.20;;;-0.40;99.90;;;;;;5081847;28;20036;-87
2021/01/03 02:25:24;;;;;;;0.17;0.17;;;-0.40;99.90;;;;;;5077513;28;20055;-87
2021/01/03 02:28:15;;;;;;;0.30;0.30;;;-0.50;99.90;;;;;;5088490;28;20036;-87
2021/01/03 02:30:51;;;;;;;0.43;0.43;;;-0.60;99.90;;;;;;5080770;28;20031;-87
2021/01/03 02:33:30;;;;;;;0.20;0.20;;;-0.70;99.90;;;;;;5085995;28;20057;-88
2021/01/03 02:36:01;;;;;;;0.10;0.10;;;-0.70;99.90;;;;;;5075240;28;20071;-87
2021/01/03 02:38:29;;;;;;;0.10;0.10;;;-0.80;99.90;;;;;;5073671;28;20766;-86
2021/01/03 02:40:55;;;;;;;0.75;0.60;;;-0.80;99.90;;;;;;5086168;28;21416;-86
2021/01/03 02:43:21;;;;;;;1.20;0.97;;;-0.80;99.90;;;;;;5086513;28;20166;-86
2021/01/03 02:45:47;;;;;;;0.70;0.65;;;-0.80;99.90;;;;;;5087912;28;20111;-87
2021/01/03 02:48:17;;;;;;;0.10;0.10;;;-0.70;99.90;;;;;;5085123;28;20499;-88
2021/01/03 02:50:43;;;;;;;0.10;0.10;;;-0.60;99.90;;;;;;5086767;28;20076;-88
2021/01/03 02:53:09;;;;;;;0.37;0.37;;;-0.50;99.90;;;;;;5088416;28;20032;-88
2021/01/03 02:55:35;;;;;;;0.35;0.35;;;-0.50;99.90;;;;;;5086613;28;20032;-88
2021/01/03 02:58:01;;;;;;;0.32;0.32;;;-0.40;99.90;;;;;;5074084;28;20024;-88
2021/01/03 03:00:33;;;;;;;0.25;0.25;;;-0.30;99.90;;;;;;5078959;28;20063;-88
2021/01/03 03:03:00;;;;;;;1.38;0.95;;;-0.30;99.90;;;;;;5087608;28;20034;-88
2021/01/03 03:05:26;;;;;;;0.10;0.10;;;-0.30;99.90;;;;;;5088676;28;20028;-88
2021/01/03 03:07:53;;;;;;;0.30;0.30;;;-0.20;99.90;;;;;;5081756;28;20422;-90
2021/01/03 03:10:20;;;;;;;1.77;1.05;;;-0.20;99.90;;;;;;5083560;28;20028;-89
2021/01/03 03:12:55;;;;;;;0.10;0.10;;;-0.20;99.90;;;;;;5082595;28;20506;-89
2021/01/03 03:15:23;;;;;;;1.00;0.90;;;-0.20;99.90;;;;;;5082254;28;20130;-90
2021/01/03 03:17:49;;;;;;;0.38;0.38;;;-0.20;99.90;;;;;;5083235;28;20518;-90
2021/01/03 03:20:16;;;;;;;0.10;0.10;;;-0.20;99.90;;;;;;5081390;28;20078;-90
2021/01/03 03:22:42;;;;;;;;;;;-0.20;99.90;;;;;;5089238;28;20429;-90
2021/01/03 03:25:08;;;;;;;0.77;0.77;;;-0.20;99.90;;;;;;5086477;28;19908;-90
2021/01/03 03:27:35;;;;;;;0.43;0.43;;;-0.20;99.90;;;;;;5086745;28;20032;-91
2021/01/03 03:30:01;;;;;;;0.10;0.10;;;-0.20;99.90;;;;;;5086132;28;20103;-91
2021/01/03 03:32:27;;;;;;;0.20;0.20;;;-0.10;99.90;;;;;;5087630;28;20714;-89
2021/01/03 03:34:52;;;;;;;0.25;0.25;;;-0.10;99.90;;;;;;5087893;28;20024;-89
2021/01/03 03:37:18;;;;;;;0.10;0.10;;;-0.10;99.90;;;;;;5087814;28;20044;-88
2021/01/03 03:39:44;;;;;;;0.13;0.13;;;-0.10;99.90;;;;;;5083378;28;20073;-87
2021/01/03 03:42:10;;;;;;;0.22;0.22;;;-0.20;99.90;;;;;;5085057;28;20016;-87
2021/01/03 03:44:36;;;;;;;0.20;0.20;;;-0.20;99.90;;;;;;5091810;28;20035;-87
2021/01/03 03:47:04;;;;;;;0.10;0.10;;;-0.20;99.90;;;;;;5089707;28;20031;-88
2021/01/03 03:49:34;;;;;;;1.35;1.35;;;-0.20;99.90;;;;;;5080737;28;20063;-88
2021/01/03 03:52:03;;;;;;;0.57;0.57;;;-0.20;99.90;;;;;;5091768;28;20032;-88
2021/01/03 03:54:28;;;;;;;0.20;0.20;;;-0.20;99.90;;;;;;5087698;28;20712;-89
2021/01/03 03:56:57;;;;;;;0.50;0.50;;;-0.20;99.90;;;;;;5074575;28;20025;-89
2021/01/03 03:59:24;;;;;;;0.10;0.10;;;-0.20;99.90;;;;;;5079754;28;20028;-88
2021/01/03 04:01:50;;;;;;;1.55;1.40;;;-0.10;99.90;;;;;;5089132;28;20020;-88
2021/01/03 04:04:17;;;;;;;0.60;0.60;;;-0.10;99.90;;;;;;5077665;28;20154;-89
2021/01/03 04:06:43;;;;;;;0.43;0.43;;;-0.20;99.90;;;;;;5091506;28;20511;-89
2021/01/03 04:09:10;;;;;;;0.52;0.52;;;-0.20;99.90;;;;;;5091593;28;20028;-90
2021/01/03 04:11:41;;;;;;;0.30;0.30;;;-0.20;99.90;;;;;;5083764;28;20893;-89
2021/01/03 04:14:07;;;;;;;1.17;1.15;;;-0.20;99.90;;;;;;5090282;28;20032;-88
2021/01/03 04:16:33;;;;;;;0.60;0.60;;;-0.20;99.90;;;;;;5089869;28;20043;-88
2021/01/03 04:18:59;;;;;;;0.10;0.10;;;-0.20;99.90;;;;;;5085460;28;20020;-88
2021/01/03 04:21:25;;;;;;;0.20;0.20;;;-0.20;99.90;;;;;;5081694;28;20031;-89
2021/01/03 04:23:51;;;;;;;0.10;0.10;;;-0.20;99.90;;;;;;5091443;28;20392;-89
2021/01/03 04:26:18;;;;;;;0.30;0.30;;;-0.20;99.90;;;;;;5082953;28;20035;-89
2021/01/03 04:28:45;;;;;;;0.77;0.77;;;-0.20;99.90;;;;;;5082354;28;20020;-89
2021/01/03 04:31:11;;;;;;;0.30;0.30;;;-0.20;99.90;;;;;;5090110;28;20504;-89
2021/01/03 04:33:40;;;;;;;1.45;1.27;;;-0.30;99.90;;;;;;5090619;28;20034;-90
2021/01/03 04:36:05;;;;;;;0.63;0.63;;;-0.30;99.90;;;;;;5090718;28;20032;-89
2021/01/03 04:38:31;;;;;;;0.85;0.85;;;-0.20;99.90;;;;;;5088704;28;20510;-89
2021/01/03 04:40:57;;;;;;;0.20;0.20;;;-0.30;99.90;;;;;;5075078;28;20518;-89
2021/01/03 04:43:25;;;;;;;0.47;0.47;;;-0.30;99.90;;;;;;5090342;28;20035;-89
2021/01/03 04:46:02;;;;;;;0.43;0.43;;;-0.30;99.90;;;;;;5089154;28;20055;-88
2021/01/03 04:48:33;;;;;;;0.65;0.43;;;-0.30;99.90;;;;;;5079821;28;20028;-88
2021/01/03 04:51:13;;;;;;;0.10;0.10;;;-0.30;99.90;;;;;;5088630;28;20481;-88
2021/01/03 04:54:04;;;;;;;1.77;1.17;;;-0.30;99.90;;;;;;5084854;28;20036;-88
2021/01/03 04:56:42;;;;;;;0.50;0.50;;;-0.30;99.90;;;;;;5084520;28;20024;-88
2021/01/03 04:59:36;;;;;;;0.95;0.95;;;-0.30;99.90;;;;;;5081137;28;20028;-89
2021/01/03 05:02:39;;;;;;;0.40;0.40;;;-0.30;99.90;;;;;;5089344;28;20032;-88
2021/01/03 05:05:22;;;;;;;0.32;0.32;;;-0.30;99.90;;;;;;5089942;28;20051;-88
2021/01/03 05:08:16;;;;;;;0.20;0.20;;;-0.30;99.90;;;;;;5083489;28;20085;-89
2021/01/03 05:10:43;;;;;;;0.30;0.30;;;-0.30;99.90;;;;;;5088384;28;20020;-88
2021/01/03 05:13:17;;;;;;;0.20;0.20;;;-0.30;99.90;;;;;;5078658;28;20106;-87
2021/01/03 05:15:43;;;;;;;0.95;0.95;;;-0.40;99.90;;;;;;5087664;28;20100;-87
2021/01/03 05:18:09;;;;;;;0.35;0.35;;;-0.40;99.90;;;;;;5084855;28;20551;-87
2021/01/03 05:20:35;;;;;;;0.10;0.10;;;-0.40;99.90;;;;;;5089695;28;20404;-87
2021/01/03 05:23:18;;;;;;;0.47;0.47;;;-0.40;99.90;;;;;;5077751;28;20051;-88
2021/01/03 05:25:46;;;;;;;0.20;0.20;;;-0.30;99.90;;;;;;5074182;28;20032;-89
2021/01/03 05:28:34;;;;;;;0.45;0.45;;;-0.30;99.90;;;;;;5080640;28;20024;-88
2021/01/03 05:31:29;;;;;;;0.57;0.57;;;-0.30;99.90;;;;;;5069889;28;20499;-89
2021/01/03 05:34:09;;;;;;;0.40;0.40;;;-0.30;99.90;;;;;;5068144;28;21188;-89
2021/01/03 05:36:45;;;;;;;2.38;1.38;;;-0.30;99.90;;;;;;5089806;28;20028;-88
2021/01/03 05:39:29;;;;;;;0.30;0.30;;;-0.30;99.90;;;;;;5079194;28;20560;-88
2021/01/03 05:42:05;;;;;;;0.35;0.35;;;-0.20;99.90;;;;;;5076524;28;20067;-89
2021/01/03 05:44:39;;;;;;;0.80;0.75;;;-0.20;99.90;;;;;;5085882;28;20102;-89
2021/01/03 05:47:25;;;;;;;0.63;0.63;;;-0.20;99.90;;;;;;5084492;28;20034;-88
2021/01/03 05:50:25;;;;;;;1.17;1.02;;;-0.20;99.90;;;;;;5086507;28;20052;-89
2021/01/03 05:53:13;;;;;;;0.30;0.30;;;-0.20;99.90;;;;;;5085424;28;20527;-88
2021/01/03 05:55:49;;;;;;;2.17;1.40;;;-0.20;99.90;;;;;;5076490;28;20484;-87
2021/01/03 05:58:23;;;;;;;0.63;0.63;;;-0.20;99.90;;;;;;5082057;28;20036;-87
2021/01/03 06:00:49;;;;;;;0.20;0.20;;;-0.20;99.90;;;;;;5082870;28;20081;-88
2021/01/03 06:03:17;;;;;;;0.45;0.45;;;-0.20;99.90;;;;;;5073994;28;20029;-87
2021/01/03 06:06:01;;;;;;;0.55;0.55;;;-0.20;99.90;;;;;;5086963;28;20055;-87
2021/01/03 06:08:29;;;;;;;0.63;0.63;;;-0.20;99.90;;;;;;5088485;28;20039;-88
2021/01/03 06:10:55;;;;;;;1.30;1.20;;;-0.10;99.90;;;;;;5086845;28;20415;-89
2021/01/03 06:13:25;;;;;;;0.65;0.65;;;-0.20;99.90;;;;;;5089536;28;20024;-88
2021/01/03 06:15:58;;;;;;;0.82;0.82;;;-0.10;99.90;;;;;;5078564;28;20482;-86
2021/01/03 06:18:48;;;;;;;0.63;0.63;;;-0.20;99.90;;;;;;5073192;28;20515;-86
2021/01/03 06:21:20;;;;;;;1.67;1.05;;;-0.10;99.90;;;;;;5077005;28;20028;-89
2021/01/03 06:24:13;;;;;;;0.90;0.75;;;-0.20;99.90;;;;;;5084439;28;20541;-89
2021/01/03 06:27:01;;;;;;;3.40;2.33;;;-0.30;99.90;;;;;;5077016;28;20484;-89
2021/01/03 06:29:58;;;;;;;1.05;1.05;;;-0.20;99.90;;;;;;5080844;28;20059;-88
2021/01/03 06:32:26;;;;;;;2.80;0.77;;;-0.10;99.90;;;;;;5063940;28;20852;-88
2021/01/03 06:34:59;;;;;;;0.32;0.32;;;-0.10;99.90;;;;;;5075488;28;20051;-88
2021/01/03 06:37:54;;;;;;;0.10;0.10;;;-0.10;99.90;;;;;;5086588;28;20116;-88
2021/01/03 06:40:34;;;;;;;0.63;0.63;;;-0.20;99.90;;;;;;5081475;28;20407;-88
2021/01/03 06:43:25;;;;;;;0.57;0.57;;;-0.20;99.90;;;;;;5084495;28;20048;-89
2021/01/03 06:45:54;;;;;;;0.52;0.52;;;-0.20;99.90;;;;;;5086936;28;20032;-89
2021/01/03 06:48:57;;;;;;;0.43;0.43;;;-0.20;99.90;;;;;;5086172;28;20020;-89
2021/01/03 06:51:47;;;;;;;0.30;0.30;;;-0.20;99.90;;;;;;5073267;28;20032;-89
2021/01/03 06:54:35;;;;;;;0.47;0.47;;;-0.20;99.90;;;;;;5086604;28;20031;-88
2021/01/03 06:57:19;;;;;;;0.77;0.77;;;-0.30;99.90;;;;;;5087342;28;20027;-87
2021/01/03 07:00:09;;;;;;;1.25;1.15;;;-0.20;99.90;;;;;;5081585;28;20024;-88
2021/01/03 07:02:42;;;;;;;0.35;0.35;;;-0.30;99.90;;;;;;5077870;28;20028;-88
2021/01/03 07:05:09;;;;;;;0.30;0.30;;;-0.30;99.90;;;;;;5087367;28;20872;-88
2021/01/03 07:07:37;;;;;;;;;;;-0.30;99.90;;;;;;5090174;28;20077;-88
2021/01/03 07:10:09;;;;;;;0.10;0.10;;;-0.30;99.90;;;;;;5076625;28;19961;-88
2021/01/03 07:12:40;;;;;;;0.20;0.20;;;-0.30;99.90;;;;;;5088291;28;20031;-87
2021/01/03 07:15:14;;;;;;;0.50;0.50;;;-0.40;99.90;;;;;;5088340;28;20118;-86
2021/01/03 07:17:54;;;;;;;3.67;0.57;;;-0.50;99.90;;;;;;5088130;28;20024;-87
2021/01/03 07:20:58;;;;;;;0.68;0.52;;;-0.40;99.90;;;;;;5090393;28;20032;-88
2021/01/03 07:23:37;;;;;;;0.98;0.95;;;-0.40;99.90;;;;;;4992335;28;20103;-89
2021/01/03 07:26:18;;;;;;;0.30;0.30;;;-0.40;99.90;;;;;;5005376;28;20120;-90
2021/01/03 07:28:50;;;;;;;1.42;1.33;;;-0.50;99.90;;;;;;4988197;28;20034;-90
2021/01/03 07:31:33;;;;;;;1.02;0.68;;;-0.50;99.90;;;;;;5004959;28;20022;-90
2021/01/03 07:34:11;;;;;;;0.93;0.82;;;-0.40;99.90;;;;;;5008926;28;20081;-92
2021/01/03 07:37:05;;;;;;;0.40;0.40;;;-0.40;99.90;;;;;;4989988;28;20110;-91
2021/01/03 07:39:32;;;;;;;0.30;0.30;;;-0.40;99.90;;;;;;4989139;28;20082;-89
2021/01/03 07:42:15;;;;;;;0.47;0.47;;;-0.30;99.90;;;;;;4989765;28;20061;-91
2021/01/03 07:44:41;;;;;;;0.95;0.95;;;-0.30;99.90;;;;;;4992060;28;20525;-85
2021/01/03 07:47:07;;;;;;;0.75;0.75;;;-0.30;99.90;;;;;;5009032;28;20464;-90
2021/01/03 07:49:37;;;;;;;0.50;0.50;;;-0.40;99.90;;;;;;5008043;28;20480;-86
2021/01/03 07:52:37;;;;;;;0.98;0.90;;;-0.40;99.90;;;;;;5004244;28;20038;-88
2021/01/03 07:55:04;;;;;;;1.77;1.27;;;-0.40;99.90;;;;;;4988647;28;20097;-88
2021/01/03 07:57:30;;;;;;;3.15;1.60;;;-0.40;99.90;;;;;;4983259;28;20036;-87
2021/01/03 07:59:58;;;;;;;0.20;0.20;;;-0.40;99.90;;;;;;5007733;28;20461;-88
2021/01/03 08:02:27;;;;;;;0.20;0.20;;;-0.30;99.90;;;;;;5068169;28;20025;-89
2021/01/03 08:04:55;;;;;;;0.40;0.40;;;-0.20;99.90;;;;;;5050388;28;20570;-90
2021/01/03 08:07:22;;;;;;;0.93;0.93;;;-0.20;99.90;;;;;;5068448;28;20440;-91
2021/01/03 08:09:47;;;;;;;5.60;2.97;;;-0.10;99.90;;;;;;5068409;28;20040;-90
2021/01/03 08:12:33;;;;;;;0.40;0.40;;;-0.10;99.90;;;;;;5067703;28;20101;-88
2021/01/03 08:15:26;;;;;;;0.35;0.35;;;-0.10;99.90;;;;;;5061075;28;20072;-89
2021/01/03 08:17:58;;;;;;;0.40;0.40;;;0.00;99.90;;;;;;5045057;28;20086;-90
2021/01/03 08:20:25;;;;;;;0.50;0.50;;;0.00;99.90;;;;;;5054278;28;20043;-90
2021/01/03 08:22:51;;;;;;;0.25;0.25;;;0.00;99.90;;;;;;5052226;28;20021;-88
2021/01/03 08:25:24;;;;;;;0.70;0.70;;;0.10;99.90;;;;;;5068617;28;20807;-90
2021/01/03 08:28:11;;;;;;;0.98;0.98;;;0.00;99.90;;;;;;5060169;28;20447;-90
2021/01/03 08:30:38;;;;;;;1.15;1.15;;;0.20;99.90;;;;;;5079606;28;20172;-87
2021/01/03 08:33:26;;;;;;;3.72;2.38;;;0.10;99.90;;;;;;5086054;28;20032;-89
2021/01/03 08:35:53;;;;;;;1.30;1.20;;;0.30;99.90;;;;;;5088603;28;20402;-89
2021/01/03 08:38:27;;;;;;;2.55;1.45;;;0.40;99.90;;;;;;5085120;28;20416;-90
2021/01/03 08:41:01;;;;;;;3.40;3.20;;;0.40;99.90;;;;;;5076225;28;20047;-91
2021/01/03 08:43:30;;;;;;;1.63;1.60;;;0.50;99.90;;;;;;5091939;28;20020;-90
2021/01/03 08:46:00;;;;;;;5.45;1.83;;;0.50;99.90;;;;;;5094199;28;20032;-91
2021/01/03 08:48:27;;;;;;;0.52;0.52;;;0.40;99.90;;;;;;5093042;28;20024;-90
2021/01/03 08:51:13;;;;;;;3.13;2.92;;;0.40;99.90;;;;;;5092789;28;20576;-90
2021/01/03 08:53:39;;;;;;;1.42;1.33;;;0.50;99.90;;;;;;5091272;28;20039;-90
2021/01/03 08:56:12;;;;;;;0.30;0.30;;;0.70;99.90;;;;;;5090521;28;20391;-90
2021/01/03 08:58:39;;;;;;;7.72;4.40;;;0.90;99.90;;;;;;5092015;28;20032;-89
2021/01/03 09:01:15;;;;;;;8.98;1.30;;;0.80;99.90;;;;;;5087766;28;20025;-89
2021/01/03 09:03:41;;;;;;;0.30;0.30;;;0.80;99.90;;;;;;5083175;28;20111;-93
2021/01/03 09:06:08;;;;;;;0.30;0.30;;;0.90;99.90;;;;;;5091739;28;20391;-91
2021/01/03 09:08:41;;;;;;;0.57;0.57;;;0.90;99.90;;;;;;5089948;28;20055;-91
2021/01/03 09:11:14;;;;;;;0.77;0.77;;;0.90;99.90;;;;;;5091336;28;20077;-91
2021/01/03 09:13:54;;;;;;;0.20;0.20;;;1.00;99.90;;;;;;5091344;28;20132;-90
2021/01/03 09:16:33;;;;;;;0.57;0.55;;;1.00;99.90;;;;;;5090935;28;20016;-90
2021/01/03 09:19:06;;;;;;;0.50;0.50;;;1.20;99.90;;;;;;5088873;28;20711;-91
2021/01/03 09:21:32;;;;;;;1.23;1.13;;;1.20;99.90;;;;;;5075231;28;20446;-90
2021/01/03 09:24:02;;;;;;;0.37;0.37;;;1.20;99.90;;;;;;5092305;28;20426;-91
2021/01/03 09:26:41;;;;;;;1.02;1.02;;;1.20;99.90;;;;;;5093388;28;20020;-91
2021/01/03 09:30:01;;;;;;;1.98;1.85;;;1.30;99.90;;;;;;5082938;28;20032;-92
2021/01/03 09:32:34;;;;;;;0.82;0.82;;;1.30;99.90;;;;;;5073229;28;20074;-93
2021/01/03 09:35:42;;;;;;;0.50;0.50;;;1.30;99.90;;;;;;5073116;28;20051;-92
2021/01/03 09:38:29;;;;;;;0.20;0.20;;;1.30;99.90;;;;;;5064045;28;20033;-92
2021/01/03 09:41:33;;;;;;;4.93;3.45;;;1.40;99.90;;;;;;5070317;28;20040;-90
2021/01/03 09:44:26;;;;;;;2.45;0.95;;;1.50;99.90;;;;;;5079869;28;20031;-92
2021/01/03 09:47:01;;;;;;;0.30;0.30;;;1.40;99.90;;;;;;5080230;28;20020;-90
2021/01/03 09:49:37;;;;;;;2.08;0.85;;;1.40;99.90;;;;;;5072799;28;20048;-91
2021/01/03 09:52:24;;;;;;;1.77;1.65;;;1.60;99.90;;;;;;5074434;28;20680;-90
2021/01/03 09:55:02;;;;;;;0.50;0.50;;;1.40;99.90;;;;;;5072932;28;20025;-89
2021/01/03 09:58:03;;;;;;;0.98;0.98;;;1.40;99.90;;;;;;5085684;28;20046;-89
2021/01/03 10:00:46;;;;;;;0.73;0.73;;;1.50;99.90;;;;;;5069067;28;20037;-89
2021/01/03 10:03:32;;;;;;;0.30;0.30;;;1.40;99.90;;;;;;5083673;28;20052;-88
2021/01/03 10:06:17;;;;;;;0.85;0.85;;;1.30;99.90;;;;;;5073131;28;20082;-88
2021/01/03 10:08:44;;;;;;;0.50;0.50;;;1.50;99.90;;;;;;5084504;28;20123;-88
2021/01/03 10:11:10;;;;;;;;;;;1.50;99.90;;;;;;5081852;28;20028;-88
2021/01/03 10:13:37;;;;;;;0.93;0.93;;;1.70;99.90;;;;;;5071977;28;19920;-87
2021/01/03 10:16:21;;;;;;;0.20;0.20;;;1.70;99.90;;;;;;5077912;28;20028;-87
2021/01/03 10:18:46;;;;;;;0.43;0.43;;;1.70;99.90;;;;;;5071485;28;20059;-87
2021/01/03 10:21:37;;;;;;;0.47;0.47;;;2.00;99.90;;;;;;5083731;28;20059;-89
2021/01/03 10:24:38;;;;;;;0.20;0.20;;;2.00;99.90;;;;;;5074695;28;20039;-88
2021/01/03 10:27:03;;;;;;;0.50;0.50;;;2.30;99.90;;;;;;5085517;28;20759;-87
2021/01/03 10:29:31;;;;;;;1.67;1.20;;;2.30;99.90;;;;;;5074695;28;20027;-87
2021/01/03 10:31:57;;;;;;;0.30;0.30;;;2.40;99.90;;;;;;5076154;28;20045;-87
2021/01/03 10:34:25;;;;;;;0.85;0.85;;;2.30;99.90;;;;;;5069983;28;20564;-87
2021/01/03 10:36:57;;;;;;;;;;;2.30;99.90;;;;;;5076294;28;20547;-87
2021/01/03 10:39:24;;;;;;;0.35;0.35;;;2.00;99.90;;;;;;5077494;28;19908;-88
2021/01/03 10:41:50;;;;;;;1.02;0.93;;;2.00;99.90;;;;;;5072206;28;20526;-86
2021/01/03 10:44:17;;;;;;;1.02;1.02;;;1.70;99.90;;;;;;5074277;28;20051;-86
2021/01/03 10:46:47;;;;;;;0.38;0.38;;;1.50;99.90;;;;;;5077165;28;20020;-87
2021/01/03 10:49:12;;;;;;;1.35;0.65;;;1.60;99.90;;;;;;5079803;28;20139;-87
2021/01/03 10:51:46;;;;;;;0.52;0.52;;;1.50;99.90;;;;;;5076990;28;20031;-87
2021/01/03 10:54:18;;;;;;;0.90;0.90;;;1.40;99.90;;;;;;5078616;28;20037;-87
2021/01/03 10:56:56;;;;;;;0.40;0.40;;;1.40;99.90;;;;;;5079031;28;20086;-86
2021/01/03 10:59:24;;;;;;;0.35;0.35;;;1.50;99.90;;;;;;5077894;28;20035;-86
2021/01/03 11:01:51;;;;;;;0.10;0.10;;;1.50;99.90;;;;;;5072876;28;20028;-85
2021/01/03 11:04:20;;;;;;;0.50;0.50;;;1.50;99.90;;;;;;5078036;28;20067;-86
2021/01/03 11:06:48;;;;;;;0.75;0.75;;;1.80;99.90;;;;;;5077719;28;20407;-86
2021/01/03 11:09:18;;;;;;;0.55;0.55;;;1.60;99.90;;;;;;5074083;28;20086;-86
2021/01/03 11:11:44;;;;;;;0.73;0.73;;;1.70;99.90;;;;;;5074723;28;20089;-86
2021/01/03 11:14:10;;;;;;;0.93;0.75;;;1.70;99.90;;;;;;5076485;28;20131;-86
2021/01/03 11:16:41;;;;;;;0.10;0.10;;;1.80;99.90;;;;;;5073589;28;20797;-85
2021/01/03 11:19:10;;;;;;;0.30;0.30;;;1.70;99.90;;;;;;5079769;28;20031;-86
2021/01/03 11:21:36;;;;;;;2.88;1.20;;;1.60;99.90;;;;;;5076527;28;20035;-86
2021/01/03 11:24:04;;;;;;;1.95;1.83;;;1.40;99.90;;;;;;5070338;28;20024;-86
2021/01/03 11:26:36;;;;;;;0.10;0.10;;;1.30;99.90;;;;;;5079092;28;20028;-86
2021/01/03 11:29:04;;;;;;;0.88;0.88;;;1.10;99.90;;;;;;5075657;28;20028;-86
2021/01/03 11:31:40;;;;;;;0.20;0.20;;;1.30;99.90;;;;;;5079905;28;20039;-85
2021/01/03 11:34:08;;;;;;;1.02;1.02;;;1.50;99.90;;;;;;5079225;28;20033;-86
2021/01/03 11:36:34;;;;;;;0.20;0.20;;;1.50;99.90;;;;;;5073819;28;20028;-87
2021/01/03 11:39:04;;;;;;;2.17;1.58;;;1.70;99.90;;;;;;5075894;28;20032;-86
2021/01/03 11:41:30;;;;;;;3.30;1.52;;;2.30;99.90;;;;;;5069655;28;20021;-85
2021/01/03 11:43:56;;;;;;;0.28;0.28;;;2.70;99.90;;;;;;5076980;28;20039;-85
2021/01/03 11:46:22;;;;;;;1.45;1.42;;;2.80;99.90;;;;;;5074336;28;20495;-87
2021/01/03 11:48:48;;;;;;;1.10;1.10;;;2.70;99.90;;;;;;5073176;28;20504;-86
2021/01/03 11:51:14;;;;;;;1.25;1.25;;;2.40;99.90;;;;;;5083379;28;20031;-86
2021/01/03 11:53:40;;;;;;;0.30;0.30;;;2.20;99.90;;;;;;5087031;28;20095;-86
2021/01/03 11:56:06;;;;;;;0.32;0.32;;;2.30;99.90;;;;;;5078446;28;20099;-88
2021/01/03 11:58:33;;;;;;;0.30;0.30;;;2.60;99.90;;;;;;5081669;28;20028;-87
2021/01/03 12:00:59;;;;;;;0.35;0.35;;;2.60;99.90;;;;;;5073834;28;20173;-86
2021/01/03 12:03:26;;;;;;;1.00;0.95;;;2.40;99.90;;;;;;5075227;28;20112;-89
2021/01/03 12:05:52;;;;;;;0.52;0.52;;;2.40;99.90;;;;;;5082444;28;20032;-88
2021/01/03 12:08:18;;;;;;;1.08;0.65;;;2.40;99.90;;;;;;5091264;28;20024;-88
2021/01/03 12:10:43;;;;;;;0.60;0.60;;;2.40;99.90;;;;;;5080977;28;20043;-88
2021/01/03 12:13:09;;;;;;;0.35;0.35;;;2.10;99.90;;;;;;5080816;28;20395;-88
2021/01/03 12:15:35;;;;;;;0.10;0.10;;;2.20;99.90;;;;;;5080497;28;20067;-88
2021/01/03 12:18:01;;;;;;;1.98;1.40;;;2.40;99.90;;;;;;5086621;28;20026;-87
2021/01/03 12:20:28;;;;;;;0.57;0.57;;;2.40;99.90;;;;;;5078851;28;20021;-87
2021/01/03 12:22:54;;;;;;;0.35;0.35;;;2.70;99.90;;;;;;5074262;28;20150;-86
2021/01/03 12:25:21;;;;;;;0.67;0.67;;;3.00;99.90;;;;;;5075146;28;20090;-86
2021/01/03 12:27:48;;;;;;;5.82;1.80;;;2.90;99.90;;;;;;5071945;28;20263;-86
2021/01/03 12:30:14;;;;;;;;;;;2.90;99.90;;;;;;5071881;28;20054;-85
2021/01/03 12:32:41;;;;;;;;;;;2.70;99.90;;;;;;5072477;28;20004;-86
2021/01/03 12:35:10;;;;;;;1.98;1.85;;;2.40;99.90;;;;;;5077050;28;20342;-85
2021/01/03 12:37:40;;;;;;;2.35;2.17;;;2.20;99.90;;;;;;5072665;28;20024;-86
2021/01/03 12:40:09;;;;;;;3.03;1.92;;;2.10;99.90;;;;;;5073865;28;20403;-85
2021/01/03 12:42:37;;;;;;;4.72;4.32;;;2.50;99.90;;;;;;5073218;28;20036;-85
2021/01/03 12:45:11;;;;;;;0.82;0.28;;;2.50;99.90;;;;;;5083283;28;20024;-85
2021/01/03 12:47:37;;;;;;;3.30;1.90;;;2.50;99.90;;;;;;5080391;28;20111;-89
2021/01/03 12:50:05;;;;;;;1.13;1.13;;;2.30;99.90;;;;;;5075690;28;20416;-88
2021/01/03 12:52:31;;;;;;;0.60;0.60;;;2.50;99.90;;;;;;5076211;28;20034;-86
2021/01/03 12:54:57;;;;;;;0.27;0.27;;;2.70;99.90;;;;;;5075989;28;20151;-87
2021/01/03 12:57:23;;;;;;;2.10;1.00;;;2.70;99.90;;;;;;5079237;28;20512;-91
2021/01/03 12:59:49;;;;;;;2.80;1.17;;;2.70;99.90;;;;;;5084180;28;20027;-89
2021/01/03 13:02:15;;;;;;;1.00;1.00;;;2.90;99.90;;;;;;5078639;28;20266;-90
2021/01/03 13:04:41;;;;;;;0.32;0.32;;;3.00;99.90;;;;;;5074476;28;20480;-89
2021/01/03 13:07:07;;;;;;;0.32;0.32;;;2.70;99.90;;;;;;5079401;28;20035;-87
2021/01/03 13:09:33;;;;;;;10.10;0.95;;;3.00;99.90;;;;;;5075821;28;20116;-87
2021/01/03 13:11:59;;;;;;;0.57;0.57;;;3.20;99.90;;;;;;5074900;28;20115;-89
2021/01/03 13:14:25;;;;;;;3.30;1.48;;;3.20;99.90;;;;;;5077946;28;20037;-87
2021/01/03 13:16:51;;;;;;;0.68;0.68;;;3.30;99.90;;;;;;5074975;28;20024;-90
2021/01/03 13:19:17;;;;;;;1.30;1.00;;;3.40;99.90;;;;;;5093181;28;20108;-88